createdAt,value
2023-01-30T00:17:41.071Z,35.40
2023-01-30T00:18:41.187Z,36.62
2023-01-30T00:19:41.138Z,36.83
2023-01-30T00:20:41.176Z,35.26
2023-01-30T00:21:41.221Z,37.26
2023-01-30T00:22:49.337Z,38.92
2023-01-30T00:23:42.240Z,39.05
2023-01-30T00:24:41.294Z,37.02
2023-01-30T00:25:41.401Z,38.80
2023-01-30T00:26:41.248Z,39.92
2023-01-30T00:27:41.202Z,39.78
2023-01-30T00:28:41.199Z,38.17
2023-01-30T00:29:41.207Z,35.06
2023-01-30T00:31:41.226Z,39.90
2023-01-30T00:32:41.194Z,40.12
2023-01-30T00:33:41.174Z,38.14
2023-01-30T00:34:42.127Z,41.36
2023-01-30T00:35:41.148Z,35.45
2023-01-30T00:36:41.207Z,38.38
2023-01-30T00:37:41.132Z,35.93
2023-01-30T00:38:41.178Z,37.12
2023-01-30T00:39:41.628Z,38.97
2023-01-30T00:40:41.256Z,37.21
2023-01-30T00:41:41.274Z,36.22
2023-01-30T00:42:41.305Z,36.76
2023-01-30T00:43:41.336Z,37.59
2023-01-30T00:44:41.423Z,37.92
2023-01-30T00:45:41.422Z,39.81
2023-01-30T00:46:41.443Z,38.98
2023-01-30T00:47:41.478Z,39.15
2023-01-30T00:48:41.509Z,36.72
2023-01-30T00:49:41.534Z,37.35
2023-01-30T00:50:42.132Z,37.88
2023-01-30T00:51:41.593Z,38.41
2023-01-30T00:52:41.619Z,38.06
2023-01-30T00:53:41.656Z,39.95
2023-01-30T00:54:41.691Z,39.99
2023-01-30T00:55:41.801Z,39.18
2023-01-30T00:56:41.750Z,35.07
2023-01-30T00:57:41.786Z,36.78
2023-01-30T00:58:41.827Z,35.93
2023-01-30T00:59:41.861Z,36.81
2023-01-30T01:00:41.983Z,35.38
2023-01-30T01:01:41.987Z,37.04
2023-01-30T01:02:41.990Z,36.10
2023-01-30T01:03:42.017Z,33.91
2023-01-30T01:04:42.055Z,37.29
2023-01-30T01:05:42.171Z,36.20
2023-01-30T01:06:42.223Z,31.43
2023-01-30T01:07:43.143Z,35.69
2023-01-30T01:08:42.211Z,32.27
2023-01-30T01:09:42.267Z,32.18
2023-01-30T01:10:42.309Z,35.39
2023-01-30T01:11:42.356Z,34.56
2023-01-30T01:12:42.396Z,32.83
2023-01-30T01:13:42.447Z,34.27
2023-01-30T01:14:42.499Z,34.20
2023-01-30T01:15:42.556Z,35.01
2023-01-30T01:16:42.653Z,34.64
2023-01-30T01:17:42.643Z,34.19
2023-01-30T01:18:42.699Z,35.36
2023-01-30T01:19:42.738Z,31.85
2023-01-30T01:20:42.796Z,33.41
2023-01-30T01:21:43.151Z,33.17
2023-01-30T01:22:42.951Z,30.94
2023-01-30T01:23:42.929Z,32.46
2023-01-30T01:24:43.057Z,36.67
2023-01-30T01:25:43.014Z,34.70
2023-01-30T01:26:43.087Z,40.44
2023-01-30T01:27:43.082Z,38.49
2023-01-30T01:28:43.113Z,37.94
2023-01-30T01:29:43.164Z,38.10
2023-01-30T01:30:43.205Z,37.96
2023-01-30T01:31:43.391Z,34.50
2023-01-30T01:32:43.268Z,39.54
2023-01-30T01:33:43.320Z,37.08
2023-01-30T01:34:43.336Z,37.88
2023-01-30T01:35:43.389Z,35.73
2023-01-30T01:36:53.952Z,35.58
2023-01-30T01:37:44.415Z,35.80
2023-01-30T01:38:43.410Z,36.21
2023-01-30T01:39:43.451Z,36.93
2023-01-30T01:40:43.390Z,34.86
2023-01-30T01:41:43.380Z,33.32
2023-01-30T01:42:43.384Z,39.85
2023-01-30T01:43:44.152Z,37.51
2023-01-30T01:44:43.367Z,35.55
2023-01-30T01:45:43.393Z,38.65
2023-01-30T01:46:43.352Z,38.46
2023-01-30T01:47:43.349Z,36.66
2023-01-30T01:48:43.332Z,38.33
2023-01-30T01:49:43.394Z,38.66
2023-01-30T01:50:43.327Z,36.51
2023-01-30T01:51:43.334Z,40.16
2023-01-30T01:52:43.377Z,35.81
2023-01-30T01:53:43.396Z,37.42
2023-01-30T01:54:43.432Z,37.43
2023-01-30T01:55:43.455Z,34.77
2023-01-30T01:56:43.494Z,37.45
2023-01-30T01:57:43.531Z,39.52
2023-01-30T01:58:43.640Z,37.20
2023-01-30T01:59:43.649Z,34.40
2023-01-30T02:00:43.633Z,36.67
2023-01-30T02:01:43.667Z,38.81
2023-01-30T02:02:43.747Z,36.58
2023-01-30T02:03:43.733Z,36.26
2023-01-30T02:04:43.760Z,39.80
2023-01-30T02:05:43.793Z,39.02
2023-01-30T02:06:43.818Z,36.05
2023-01-30T02:07:43.839Z,37.59
2023-01-30T02:08:43.872Z,36.85
2023-01-30T02:09:43.894Z,39.40
2023-01-30T02:10:43.946Z,39.34
2023-01-30T02:11:43.984Z,31.05
2023-01-30T02:12:44.027Z,37.21
2023-01-30T02:13:44.080Z,39.24
2023-01-30T02:14:44.112Z,36.70
2023-01-30T02:15:44.137Z,33.48
2023-01-30T02:16:44.175Z,36.06
2023-01-30T02:17:44.242Z,36.01
2023-01-30T02:18:44.257Z,35.07
2023-01-30T02:19:44.290Z,36.80
2023-01-30T02:20:44.327Z,36.82
2023-01-30T02:21:44.360Z,35.90
2023-01-30T02:22:44.417Z,35.52
2023-01-30T02:23:44.441Z,35.14
2023-01-30T02:24:44.475Z,35.34
2023-01-30T02:25:44.510Z,38.21
2023-01-30T02:26:44.646Z,34.78
2023-01-30T02:27:44.597Z,36.28
2023-01-30T02:28:44.646Z,37.60
2023-01-30T02:29:44.673Z,35.51
2023-01-30T02:30:44.758Z,32.22
2023-01-30T02:31:44.795Z,35.83
2023-01-30T02:32:44.787Z,35.72
2023-01-30T02:33:44.825Z,33.88
2023-01-30T02:34:44.957Z,36.59
2023-01-30T02:35:44.896Z,31.57
2023-01-30T02:36:44.933Z,33.64
2023-01-30T02:37:44.980Z,32.03
2023-01-30T02:38:45.008Z,31.88
2023-01-30T02:39:45.040Z,28.52
2023-01-30T02:40:45.141Z,31.54
2023-01-30T02:41:45.192Z,36.86
2023-01-30T02:42:45.145Z,33.69
2023-01-30T02:43:45.187Z,31.79
2023-01-30T02:44:45.216Z,36.62
2023-01-30T02:45:45.269Z,34.01
2023-01-30T02:46:45.284Z,33.82
2023-01-30T02:47:45.312Z,32.03
2023-01-30T02:48:45.339Z,36.77
2023-01-30T02:49:45.446Z,35.94
2023-01-30T02:50:45.392Z,39.16
2023-01-30T02:51:45.426Z,34.62
2023-01-30T02:52:45.463Z,33.93
2023-01-30T02:53:45.487Z,33.18
2023-01-30T02:54:45.523Z,37.74
2023-01-30T02:55:45.596Z,36.66
2023-01-30T02:56:45.566Z,33.47
2023-01-30T02:57:45.668Z,34.70
2023-01-30T02:58:45.614Z,37.59
2023-01-30T03:00:45.658Z,34.71
2023-01-30T03:01:45.688Z,37.37
2023-01-30T03:02:45.738Z,36.69
2023-01-30T03:03:45.738Z,35.12
2023-01-30T03:04:45.768Z,36.31
2023-01-30T03:05:45.854Z,37.87
2023-01-30T03:06:45.816Z,33.80
2023-01-30T03:07:45.839Z,34.91
2023-01-30T03:08:46.679Z,36.58
2023-01-30T03:09:45.911Z,37.12
2023-01-30T03:10:45.940Z,32.93
2023-01-30T03:11:45.964Z,37.54
2023-01-30T03:12:45.985Z,32.85
2023-01-30T03:13:46.059Z,31.12
2023-01-30T03:14:46.053Z,35.11
2023-01-30T03:15:46.124Z,34.67
2023-01-30T03:16:46.119Z,34.56
2023-01-30T03:17:46.182Z,34.95
2023-01-30T03:18:46.172Z,32.24
2023-01-30T03:19:46.195Z,34.78
2023-01-30T03:20:46.257Z,31.40
2023-01-30T03:21:46.219Z,37.06
2023-01-30T03:22:46.248Z,32.40
2023-01-30T03:23:46.284Z,34.87
2023-01-30T03:24:46.314Z,35.91
2023-01-30T03:25:46.332Z,37.48
2023-01-30T03:26:46.379Z,34.35
2023-01-30T03:27:46.380Z,34.96
2023-01-30T03:28:46.397Z,35.32
2023-01-30T03:29:46.412Z,32.95
2023-01-30T03:30:46.486Z,36.67
2023-01-30T03:31:46.489Z,33.38
2023-01-30T03:32:46.542Z,38.72
2023-01-30T03:33:46.466Z,36.77
2023-01-30T03:34:46.481Z,32.78
2023-01-30T03:35:46.558Z,36.37
2023-01-30T03:36:46.486Z,32.63
2023-01-30T03:37:46.495Z,35.76
2023-01-30T03:38:46.494Z,38.67
2023-01-30T03:39:46.484Z,37.32
2023-01-30T03:40:46.596Z,34.73
2023-01-30T05:08:51.220Z,37.44
2023-01-30T05:14:51.098Z,34.42
2023-01-30T05:15:51.156Z,33.51
2023-01-30T05:16:51.257Z,35.09
2023-01-30T05:17:51.273Z,35.02
2023-01-30T05:18:51.332Z,34.37
2023-01-30T05:19:51.396Z,35.09
2023-01-30T05:20:51.437Z,34.80
2023-01-30T05:21:51.504Z,34.88
2023-01-30T05:22:51.621Z,31.77
2023-01-30T05:23:51.620Z,33.35
2023-01-30T05:24:51.672Z,35.06
2023-01-30T05:25:51.728Z,34.21
2023-01-30T05:26:51.788Z,36.85
2023-01-30T05:27:51.858Z,32.52
2023-01-30T05:28:51.905Z,32.84
2023-01-30T05:29:51.978Z,31.91
2023-01-30T05:30:52.030Z,33.21
2023-01-30T05:31:52.113Z,30.28
2023-01-30T05:32:52.141Z,34.82
2023-01-30T05:33:52.223Z,34.49
2023-01-30T05:34:52.260Z,32.83
2023-01-30T05:35:52.327Z,34.22
2023-01-30T05:37:52.448Z,33.10
2023-01-30T05:38:52.537Z,32.73
2023-01-30T05:39:52.554Z,33.21
2023-01-30T07:45:57.794Z,103.99
2023-01-30T07:46:57.879Z,112.26
2023-01-30T07:47:57.910Z,107.72
2023-01-30T07:48:59.820Z,130.30
2023-01-30T07:49:57.993Z,120.71
2023-01-30T07:51:58.130Z,121.51
2023-01-30T07:52:58.059Z,142.01
2023-01-30T07:53:58.076Z,122.81
2023-01-30T09:00:01.124Z,248.94
2023-01-30T09:12:01.096Z,249.36
2023-01-30T09:13:01.816Z,247.57
2023-01-30T09:14:01.145Z,249.61
2023-01-30T09:15:01.189Z,242.45
2023-01-30T09:16:01.171Z,247.37
2023-01-30T09:17:01.232Z,245.50
2023-01-30T09:18:01.194Z,243.35
2023-01-30T09:19:01.193Z,240.54
2023-01-30T09:20:01.212Z,233.05
2023-01-30T09:21:01.241Z,232.01
2023-01-30T09:22:01.255Z,233.18
2023-01-30T09:23:01.294Z,219.43
2023-01-30T09:24:01.315Z,214.14
2023-01-30T09:25:01.344Z,215.86
2023-01-30T09:26:01.333Z,207.15
2023-01-30T09:27:01.337Z,217.53
2023-01-30T09:28:01.352Z,181.28
2023-01-30T09:29:01.824Z,157.88
2023-01-30T09:30:02.318Z,168.26
2023-01-30T09:31:02.400Z,164.27
2023-01-30T09:32:02.320Z,163.54
2023-01-30T09:33:02.401Z,146.76
2023-01-30T09:34:01.524Z,146.56
2023-01-30T09:35:01.555Z,144.84
2023-01-30T09:36:01.603Z,137.69
2023-01-30T09:37:04.382Z,126.71
2023-01-30T09:38:01.631Z,126.43
2023-01-30T09:39:01.598Z,117.70
2023-01-30T09:40:02.319Z,108.23
2023-01-30T09:41:01.589Z,100.58
2023-01-30T09:42:01.591Z,109.34
2023-01-30T09:43:01.594Z,126.83
2023-01-30T09:44:01.598Z,130.02
2023-01-30T09:45:01.584Z,143.50
2023-01-30T09:46:01.632Z,149.09
2023-01-30T09:47:01.575Z,155.00
2023-01-30T09:48:02.572Z,145.77
2023-01-30T09:49:01.538Z,137.40
2023-01-30T09:50:01.537Z,128.82
2023-01-30T09:51:01.546Z,124.12
2023-01-30T09:52:01.507Z,118.01
2023-01-30T09:53:01.506Z,117.73
2023-01-30T09:54:01.506Z,113.53
2023-01-30T09:55:01.500Z,109.76
2023-01-30T09:56:01.483Z,109.47
2023-01-30T09:57:01.485Z,115.48
2023-01-30T09:58:01.488Z,111.90
2023-01-30T09:59:01.460Z,124.38
2023-01-30T10:00:01.470Z,132.70
2023-01-30T10:01:01.444Z,137.08
2023-01-30T10:02:01.448Z,136.44
2023-01-30T10:03:01.434Z,129.19
2023-01-30T10:04:01.437Z,126.97
2023-01-30T10:05:02.527Z,121.24
2023-01-30T10:06:01.430Z,117.77
2023-01-30T10:07:01.400Z,116.03
2023-01-30T10:08:01.435Z,116.32
2023-01-30T10:09:01.407Z,112.29
2023-01-30T10:10:01.412Z,112.18
2023-01-30T10:11:10.357Z,109.93
2023-01-30T10:12:02.390Z,110.13
2023-01-30T10:13:01.379Z,110.09
2023-01-30T10:14:01.409Z,110.34
2023-01-30T10:15:01.379Z,111.15
2023-01-30T10:16:01.454Z,112.50
2023-01-30T10:17:01.430Z,112.80
2023-01-30T10:18:01.358Z,114.79
2023-01-30T10:19:01.347Z,113.15
2023-01-30T10:20:01.331Z,116.29
2023-01-30T10:21:01.306Z,115.79
2023-01-30T10:22:01.298Z,115.91
2023-01-30T10:23:01.308Z,117.65
2023-01-30T10:24:01.808Z,120.05
2023-01-30T10:25:01.284Z,124.06
2023-01-30T10:26:01.307Z,123.09
2023-01-30T10:27:03.661Z,124.83
2023-01-30T10:28:01.263Z,127.35
2023-01-30T10:29:07.230Z,127.37
2023-01-30T10:30:02.257Z,127.57
2023-01-30T10:31:01.331Z,127.81
2023-01-30T10:32:01.273Z,127.45
2023-01-30T10:33:01.228Z,128.81
2023-01-30T10:34:01.242Z,130.55
2023-01-30T10:35:01.228Z,136.09
2023-01-30T10:36:01.218Z,134.83
2023-01-30T10:37:01.850Z,139.62
2023-01-30T10:38:01.193Z,141.08
2023-01-30T10:39:01.256Z,143.99
2023-01-30T10:40:01.199Z,148.80
2023-01-30T10:41:01.181Z,147.59
2023-01-30T10:42:01.842Z,150.97
2023-01-30T10:43:01.209Z,151.21
2023-01-30T10:44:01.270Z,150.47
2023-01-30T10:45:01.292Z,150.22
2023-01-30T10:46:01.336Z,150.04
2023-01-30T10:47:01.388Z,153.28
2023-01-30T10:48:01.437Z,154.17
2023-01-30T10:49:01.508Z,163.53
2023-01-30T10:50:01.572Z,182.14
2023-01-30T10:51:01.586Z,196.50
2023-01-30T10:52:01.593Z,210.82
2023-01-30T10:53:01.615Z,221.55
2023-01-30T10:54:01.630Z,231.71
2023-01-30T10:55:01.651Z,223.88
2023-01-30T10:56:01.679Z,217.36
2023-01-30T10:57:01.743Z,204.62
2023-01-30T10:58:01.797Z,198.01
2023-01-30T10:59:02.356Z,187.14
2023-01-30T11:00:01.812Z,183.96
2023-01-30T11:01:01.820Z,174.89
2023-01-30T11:02:01.901Z,168.75
2023-01-30T11:03:01.993Z,166.10
2023-01-30T11:04:01.961Z,161.65
2023-01-30T11:05:01.955Z,158.53
2023-01-30T11:06:01.962Z,154.76
2023-01-30T11:07:02.017Z,153.03
2023-01-30T11:08:02.055Z,153.22
2023-01-30T11:09:02.018Z,151.40
2023-01-30T11:10:02.058Z,150.67
2023-01-30T11:11:02.075Z,150.83
2023-01-30T11:12:02.111Z,151.32
2023-01-30T11:13:02.177Z,146.72
2023-01-30T11:14:02.234Z,145.73
2023-01-30T11:15:02.262Z,146.85
2023-01-30T11:16:02.308Z,143.78
2023-01-30T11:17:02.261Z,145.66
2023-01-30T11:18:25.301Z,143.11
2023-01-30T11:19:21.219Z,143.33
2023-01-30T11:20:03.262Z,143.31
2023-01-30T11:21:02.251Z,143.94
2023-01-30T11:22:02.253Z,144.03
2023-01-30T11:23:02.232Z,144.65
2023-01-30T11:24:02.231Z,146.01
2023-01-30T11:25:02.231Z,142.94
2023-01-30T11:26:10.846Z,143.17
2023-01-30T11:27:03.237Z,143.44
2023-01-30T11:28:02.203Z,143.99
2023-01-30T11:29:02.194Z,144.29
2023-01-30T11:30:02.213Z,144.65
2023-01-30T11:31:02.190Z,146.34
2023-01-30T11:32:02.446Z,145.28
2023-01-30T11:33:02.169Z,147.89
2023-01-30T11:34:02.163Z,146.40
2023-01-30T11:35:02.162Z,142.16
2023-01-30T11:36:03.771Z,142.26
2023-01-30T11:37:02.144Z,143.74
2023-01-30T11:38:02.139Z,144.61
2023-01-30T11:39:02.157Z,144.51
2023-01-30T11:40:02.206Z,147.30
2023-01-30T11:41:02.109Z,146.79
2023-01-30T11:42:02.109Z,149.47
2023-01-30T11:43:02.133Z,150.98
2023-01-30T11:44:02.118Z,153.05
2023-01-30T11:45:17.187Z,152.13
2023-01-30T11:46:03.201Z,152.29
2023-01-30T11:47:02.884Z,152.27
2023-01-30T11:48:04.559Z,153.54
2023-01-30T11:49:45.036Z,155.08
2023-01-30T11:50:28.663Z,152.62
2023-01-30T11:51:03.099Z,152.56
2023-01-30T11:52:02.881Z,153.79
2023-01-30T11:53:02.073Z,156.09
2023-01-30T11:54:02.083Z,158.13
2023-01-30T11:55:02.070Z,161.92
2023-01-30T11:56:07.191Z,160.41
2023-01-30T11:57:03.045Z,160.79
2023-01-30T11:58:02.040Z,161.29
2023-01-30T11:59:02.077Z,161.68
2023-01-30T12:00:02.054Z,161.30
2023-01-30T12:01:02.020Z,162.48
2023-01-30T12:02:02.048Z,163.55
2023-01-30T12:03:02.052Z,161.44
2023-01-30T12:04:02.001Z,158.37
2023-01-30T12:05:01.999Z,158.60
2023-01-30T12:06:02.029Z,157.60
2023-01-30T12:07:01.983Z,156.04
2023-01-30T12:08:01.975Z,154.99
2023-01-30T12:09:01.977Z,155.25
2023-01-30T12:10:01.980Z,150.17
2023-01-30T12:11:01.953Z,151.77
2023-01-30T12:12:01.936Z,148.03
2023-01-30T12:13:01.946Z,148.95
2023-01-30T12:14:01.946Z,147.78
2023-01-30T12:15:01.941Z,146.46
2023-01-30T12:16:01.986Z,144.61
2023-01-30T12:17:02.009Z,142.57
2023-01-30T12:18:02.405Z,142.52
2023-01-30T12:19:02.126Z,136.54
2023-01-30T12:20:02.212Z,138.22
2023-01-30T12:21:02.259Z,137.49
2023-01-30T12:22:02.326Z,138.81
2023-01-30T12:23:02.477Z,140.46
2023-01-30T12:24:02.419Z,141.22
2023-01-30T12:25:02.447Z,140.82
2023-01-30T12:26:02.459Z,138.09
2023-01-30T12:27:02.480Z,137.46
2023-01-30T12:28:02.492Z,133.12
2023-01-30T12:29:02.492Z,132.08
2023-01-30T12:30:02.507Z,131.69
2023-01-30T12:31:02.513Z,125.89
2023-01-30T12:32:02.520Z,124.15
2023-01-30T12:34:02.575Z,125.38
2023-01-30T12:35:02.541Z,129.39
2023-01-30T12:36:02.565Z,127.91
2023-01-30T12:37:02.562Z,125.74
2023-01-30T12:38:02.589Z,124.99
2023-01-30T12:39:02.609Z,125.15
2023-01-30T12:40:02.614Z,123.79
2023-01-30T12:41:02.625Z,119.12
2023-01-30T12:42:02.704Z,116.97
2023-01-30T12:43:02.666Z,121.12
2023-01-30T12:44:02.671Z,119.79
2023-01-30T12:45:02.701Z,110.74
2023-01-30T12:46:02.743Z,87.45
2023-01-30T12:47:03.404Z,72.24
2023-01-30T12:48:02.781Z,89.79
2023-01-30T12:50:03.841Z,76.63
2023-01-30T12:51:02.830Z,74.15
2023-01-30T12:52:02.830Z,71.52
2023-01-30T12:53:02.818Z,69.56
2023-01-30T12:54:02.861Z,58.23
2023-01-30T12:55:02.800Z,57.15
2023-01-30T12:56:02.808Z,57.97
2023-01-30T12:57:02.797Z,62.69
2023-01-30T12:58:02.781Z,60.26
2023-01-30T12:59:02.787Z,57.27
2023-01-30T13:00:02.849Z,58.11
2023-01-30T13:01:02.909Z,53.39
2023-01-30T13:02:02.981Z,52.31
2023-01-30T13:03:03.085Z,49.49
2023-01-30T13:04:03.073Z,50.76
2023-01-30T13:05:04.570Z,48.98
2023-01-30T13:06:03.182Z,49.07
2023-01-30T13:07:03.241Z,44.58
2023-01-30T13:08:03.284Z,43.72
2023-01-30T13:09:03.339Z,46.54
2023-01-30T13:10:03.376Z,44.20
2023-01-30T13:11:03.472Z,44.08
2023-01-30T13:12:03.503Z,42.53
2023-01-30T13:13:03.546Z,44.67
2023-01-30T13:14:03.629Z,42.72
2023-01-30T13:15:03.663Z,45.26
2023-01-30T13:16:03.742Z,43.98
2023-01-30T13:17:03.770Z,44.40
2023-01-30T13:18:03.822Z,42.07
2023-01-30T13:19:03.908Z,40.61
2023-01-30T13:20:03.982Z,39.86
2023-01-30T13:21:04.020Z,43.21
2023-01-30T13:22:04.044Z,38.12
2023-01-30T13:23:04.101Z,39.02
2023-01-30T13:24:04.159Z,35.69
2023-01-30T13:25:04.299Z,40.46
2023-01-30T13:26:04.306Z,39.00
2023-01-30T13:27:04.324Z,39.74
2023-01-30T13:28:04.371Z,36.87
2023-01-30T13:29:04.434Z,37.90
2023-01-30T15:02:08.557Z,27.70
2023-01-30T15:03:08.945Z,30.53
2023-01-30T15:04:08.569Z,31.88
2023-01-30T15:05:08.546Z,29.81
2023-01-30T15:07:08.568Z,27.97
2023-01-30T15:08:08.626Z,28.44
2023-01-30T15:09:08.638Z,28.34
2023-01-30T15:10:08.646Z,25.92
2023-01-30T15:11:08.641Z,29.03
2023-01-30T15:12:08.668Z,29.02
2023-01-30T15:13:09.374Z,29.78
2023-01-30T15:14:08.708Z,29.05
2023-01-30T15:15:08.702Z,28.08
2023-01-30T15:22:11.465Z,30.00
2023-01-30T16:52:09.761Z,27.55
2023-01-30T16:53:09.827Z,28.16
2023-01-30T16:54:09.891Z,27.60
2023-01-30T16:55:09.948Z,26.74
2023-01-30T16:56:10.100Z,25.38
2023-01-30T16:57:10.050Z,26.66
2023-01-30T16:58:10.107Z,26.91
2023-01-30T16:59:10.169Z,26.81
2023-01-30T17:00:10.298Z,26.29
2023-01-30T17:01:10.476Z,26.04
2023-01-30T17:02:10.411Z,27.23
2023-01-30T17:03:10.443Z,28.93
2023-01-30T17:04:10.466Z,29.09
2023-01-30T17:05:10.528Z,29.29
2023-01-30T17:06:10.576Z,29.09
2023-01-30T17:07:10.654Z,28.66
2023-01-30T17:08:10.680Z,25.35
2023-01-30T17:09:10.744Z,29.78
2023-01-30T17:10:10.801Z,28.37
2023-01-30T17:11:10.846Z,30.99
2023-01-30T17:12:10.913Z,28.73
2023-01-30T17:13:10.971Z,29.56
2023-01-30T17:21:11.432Z,28.27
2023-01-30T17:22:11.490Z,28.17
2023-01-30T17:23:11.550Z,27.43
2023-01-30T17:24:11.601Z,27.97
2023-01-30T17:25:11.650Z,28.60
2023-01-30T17:26:11.803Z,27.80
2023-01-30T17:27:11.791Z,25.38
2023-01-30T17:28:11.830Z,29.49
2023-01-30T17:29:23.201Z,26.45
2023-01-30T17:30:12.885Z,26.63
2023-01-30T17:31:11.963Z,26.92
2023-01-30T17:32:12.058Z,27.75
2023-01-30T17:33:11.890Z,27.83
2023-01-30T17:34:11.854Z,27.20
2023-01-30T17:35:11.851Z,28.32
2023-01-30T17:36:11.859Z,27.38
2023-01-30T17:37:11.841Z,27.18
2023-01-30T17:38:11.961Z,25.30
2023-01-30T17:39:11.947Z,29.20
2023-01-30T17:40:12.001Z,27.26
2023-01-30T17:41:12.060Z,26.10
2023-01-30T17:42:12.122Z,29.48
2023-01-30T17:43:12.172Z,28.88
2023-01-30T17:44:12.230Z,26.52
2023-01-30T17:45:12.303Z,27.96
2023-01-30T17:46:12.373Z,29.09
2023-01-30T17:47:12.539Z,29.02
2023-01-30T17:48:12.516Z,28.29
2023-01-30T17:49:12.539Z,28.42
2023-01-30T17:50:12.582Z,28.62
2023-01-30T17:51:12.654Z,28.41
2023-01-30T17:52:12.713Z,29.34
2023-01-30T17:53:12.761Z,29.47
2023-01-30T17:54:12.821Z,29.46
2023-01-30T17:55:12.875Z,27.93
2023-01-30T17:56:12.927Z,28.22
2023-01-30T17:57:13.517Z,26.82
2023-01-30T17:58:13.044Z,29.38
2023-01-30T17:59:13.106Z,27.73
2023-01-30T18:00:13.165Z,29.55
2023-01-30T18:01:13.233Z,30.07
2023-01-30T18:02:13.299Z,30.01
2023-01-30T18:03:13.350Z,30.08
2023-01-30T18:04:13.426Z,29.84
2023-01-30T18:05:13.521Z,28.44
2023-01-30T18:06:13.521Z,29.84
2023-01-30T18:07:13.596Z,29.79
2023-01-30T18:08:13.772Z,27.62
2023-01-30T18:09:13.719Z,28.50
2023-01-30T18:10:13.788Z,27.27
2023-01-30T18:11:13.844Z,27.51
2023-01-30T18:12:13.899Z,27.26
2023-01-30T18:13:13.959Z,27.80
2023-01-30T18:14:14.017Z,29.31
2023-01-30T18:15:14.060Z,27.19
2023-01-30T18:16:14.096Z,30.22
2023-01-30T18:17:14.158Z,29.52
2023-01-30T18:18:14.191Z,28.57
2023-01-30T18:19:14.241Z,30.21
2023-01-30T18:20:14.286Z,28.50
2023-01-30T18:21:14.321Z,26.90
2023-01-30T18:22:14.365Z,29.53
2023-01-30T18:23:14.404Z,29.01
2023-01-30T18:24:14.447Z,29.90
2023-01-30T18:25:14.484Z,30.79
2023-01-30T18:26:14.567Z,30.65
2023-01-30T18:27:14.580Z,31.93
2023-01-30T18:28:14.679Z,29.37
2023-01-30T18:29:14.675Z,28.10
